ADDS METAR Data

Data at: 1835 UTC 20 Jul 2018

METAR for:KMVY (Marthas Vineyard Arp, MA, US)
Text:KMVY 201753Z 18010KT 10SM FEW044 23/15 A3020 RMK AO2 SLP225 T02330150 10267 20211 51003
Temperature: 23.3°C ( 74°F)
Dewpoint: 15.0°C ( 59°F) [RH = 60%]
Pressure (altimeter):30.20 inches Hg (1022.8 mb) [Sea level pressure: 1022.5 mb]
Winds:from the S (180 degrees) at 12 MPH (10 knots; 5.1 m/s)
Visibility:10 or more sm (16+ km)
Ceiling:at least 12,000 feet AGL
Clouds: few clouds at 4400 feet AGL